sensor_id;sensor_type;location;lat;lon;timestamp;pressure;altitude;pressure_sealevel;temperature;humidity
72157;BME280;60035;52.122;5.406;2022-08-19T00:01:29;101562.97;;;17.42;82.60
72157;BME280;60035;52.122;5.406;2022-08-19T00:03:57;101563.16;;;17.38;82.66
72157;BME280;60035;52.122;5.406;2022-08-19T00:06:25;101566.47;;;17.41;82.67
72157;BME280;60035;52.122;5.406;2022-08-19T00:08:52;101565.47;;;17.44;82.53
72157;BME280;60035;52.122;5.406;2022-08-19T00:11:18;101566.16;;;17.47;81.90
72157;BME280;60035;52.122;5.406;2022-08-19T00:13:51;101578.34;;;17.45;81.99
72157;BME280;60035;52.122;5.406;2022-08-19T00:16:17;101575.47;;;17.32;82.29
72157;BME280;60035;52.122;5.406;2022-08-19T00:18:53;101576.59;;;17.27;82.56
72157;BME280;60035;52.122;5.406;2022-08-19T00:21:25;101571.63;;;17.22;82.50
72157;BME280;60035;52.122;5.406;2022-08-19T00:23:54;101570.72;;;17.23;82.58
72157;BME280;60035;52.122;5.406;2022-08-19T00:26:20;101567.44;;;17.20;82.91
72157;BME280;60035;52.122;5.406;2022-08-19T00:28:47;101568.56;;;17.14;82.82
72157;BME280;60035;52.122;5.406;2022-08-19T00:31:13;101565.06;;;17.15;82.69
72157;BME280;60035;52.122;5.406;2022-08-19T00:33:40;101575.41;;;17.15;82.45
72157;BME280;60035;52.122;5.406;2022-08-19T00:36:07;101568.47;;;17.15;82.40
72157;BME280;60035;52.122;5.406;2022-08-19T00:38:36;101560.78;;;17.14;82.30
72157;BME280;60035;52.122;5.406;2022-08-19T00:41:06;101571.38;;;17.09;82.59
72157;BME280;60035;52.122;5.406;2022-08-19T00:43:33;101565.41;;;17.07;82.60
72157;BME280;60035;52.122;5.406;2022-08-19T00:46:00;101560.50;;;17.01;83.00
72157;BME280;60035;52.122;5.406;2022-08-19T00:48:32;101561.84;;;16.91;83.50
72157;BME280;60035;52.122;5.406;2022-08-19T00:51:00;101565.19;;;16.93;82.82
72157;BME280;60035;52.122;5.406;2022-08-19T00:53:30;101570.28;;;16.94;82.73
72157;BME280;60035;52.122;5.406;2022-08-19T00:55:59;101573.66;;;16.96;82.33
72157;BME280;60035;52.122;5.406;2022-08-19T00:58:30;101571.25;;;16.92;82.65
72157;BME280;60035;52.122;5.406;2022-08-19T01:00:59;101558.84;;;16.79;82.73
72157;BME280;60035;52.122;5.406;2022-08-19T01:03:27;101557.31;;;16.75;83.07
72157;BME280;60035;52.122;5.406;2022-08-19T01:05:54;101560.88;;;16.73;82.69
72157;BME280;60035;52.122;5.406;2022-08-19T01:08:24;101558.44;;;16.70;83.01
72157;BME280;60035;52.122;5.406;2022-08-19T01:10:54;101562.50;;;16.75;82.91
72157;BME280;60035;52.122;5.406;2022-08-19T01:13:25;101565.91;;;16.76;82.83
72157;BME280;60035;52.122;5.406;2022-08-19T01:16:01;101566.75;;;16.76;82.80
72157;BME280;60035;52.122;5.406;2022-08-19T01:18:29;101565.84;;;16.77;82.98
72157;BME280;60035;52.122;5.406;2022-08-19T01:21:02;101559.03;;;16.75;82.65
72157;BME280;60035;52.122;5.406;2022-08-19T01:23:29;101560.81;;;16.74;82.75
72157;BME280;60035;52.122;5.406;2022-08-19T01:26:20;101564.44;;;16.70;82.78
72157;BME280;60035;52.122;5.406;2022-08-19T01:28:51;101568.22;;;16.63;83.10
72157;BME280;60035;52.122;5.406;2022-08-19T01:31:22;101559.66;;;16.61;83.39
72157;BME280;60035;52.122;5.406;2022-08-19T01:33:55;101564.63;;;16.65;83.19
72157;BME280;60035;52.122;5.406;2022-08-19T01:36:31;101569.59;;;16.70;83.06
72157;BME280;60035;52.122;5.406;2022-08-19T01:39:00;101568.06;;;16.66;83.14
72157;BME280;60035;52.122;5.406;2022-08-19T01:41:27;101572.38;;;16.65;82.86
72157;BME280;60035;52.122;5.406;2022-08-19T01:43:54;101572.28;;;16.48;83.15
72157;BME280;60035;52.122;5.406;2022-08-19T01:46:43;101570.88;;;16.41;83.05
72157;BME280;60035;52.122;5.406;2022-08-19T01:49:10;101563.28;;;16.36;83.46
72157;BME280;60035;52.122;5.406;2022-08-19T01:51:37;101562.66;;;16.31;83.66
72157;BME280;60035;52.122;5.406;2022-08-19T01:54:06;101560.41;;;16.23;84.00
72157;BME280;60035;52.122;5.406;2022-08-19T01:56:33;101568.19;;;16.22;84.18
72157;BME280;60035;52.122;5.406;2022-08-19T01:59:02;101569.50;;;16.11;84.22
72157;BME280;60035;52.122;5.406;2022-08-19T02:01:29;101578.97;;;16.11;84.05
72157;BME280;60035;52.122;5.406;2022-08-19T02:03:58;101565.81;;;16.17;83.79
72157;BME280;60035;52.122;5.406;2022-08-19T02:06:27;101577.78;;;16.20;83.88
72157;BME280;60035;52.122;5.406;2022-08-19T02:08:54;101571.56;;;16.24;83.73
72157;BME280;60035;52.122;5.406;2022-08-19T02:11:28;101571.38;;;16.28;83.36
72157;BME280;60035;52.122;5.406;2022-08-19T02:13:55;101570.59;;;16.26;83.54
72157;BME280;60035;52.122;5.406;2022-08-19T02:16:21;101574.22;;;16.22;83.77
72157;BME280;60035;52.122;5.406;2022-08-19T02:18:48;101565.81;;;16.17;84.11
72157;BME280;60035;52.122;5.406;2022-08-19T02:21:16;101567.88;;;16.09;84.39
72157;BME280;60035;52.122;5.406;2022-08-19T02:23:43;101562.66;;;16.10;83.93
72157;BME280;60035;52.122;5.406;2022-08-19T02:26:10;101569.38;;;16.14;83.79
72157;BME280;60035;52.122;5.406;2022-08-19T02:28:36;101566.19;;;16.08;83.57
72157;BME280;60035;52.122;5.406;2022-08-19T02:31:03;101577.56;;;16.04;83.76
72157;BME280;60035;52.122;5.406;2022-08-19T02:33:29;101576.63;;;16.05;83.85
72157;BME280;60035;52.122;5.406;2022-08-19T02:35:56;101580.16;;;16.04;83.65
72157;BME280;60035;52.122;5.406;2022-08-19T02:38:22;101578.59;;;15.99;83.76
72157;BME280;60035;52.122;5.406;2022-08-19T02:40:58;101583.03;;;15.96;83.85
72157;BME280;60035;52.122;5.406;2022-08-19T02:43:28;101586.50;;;15.95;84.01
72157;BME280;60035;52.122;5.406;2022-08-19T02:45:59;101588.50;;;15.88;84.12
72157;BME280;60035;52.122;5.406;2022-08-19T02:48:26;101588.75;;;15.82;84.59
72157;BME280;60035;52.122;5.406;2022-08-19T02:50:53;101583.56;;;15.82;84.39
72157;BME280;60035;52.122;5.406;2022-08-19T02:53:25;101581.06;;;15.80;84.56
72157;BME280;60035;52.122;5.406;2022-08-19T02:55:53;101585.81;;;15.68;85.24
72157;BME280;60035;52.122;5.406;2022-08-19T02:58:21;101585.81;;;15.68;85.48
72157;BME280;60035;52.122;5.406;2022-08-19T03:00:50;101583.22;;;15.69;85.35
72157;BME280;60035;52.122;5.406;2022-08-19T03:03:20;101585.47;;;15.77;84.95
72157;BME280;60035;52.122;5.406;2022-08-19T03:05:47;101584.63;;;15.76;84.99
72157;BME280;60035;52.122;5.406;2022-08-19T03:08:23;101590.53;;;15.80;85.18
72157;BME280;60035;52.122;5.406;2022-08-19T03:10:50;101588.91;;;15.77;85.31
72157;BME280;60035;52.122;5.406;2022-08-19T03:13:18;101574.09;;;15.82;85.00
72157;BME280;60035;52.122;5.406;2022-08-19T03:15:46;101575.47;;;15.91;84.71
72157;BME280;60035;52.122;5.406;2022-08-19T03:18:13;101567.69;;;15.93;84.36
72157;BME280;60035;52.122;5.406;2022-08-19T03:20:45;101564.16;;;15.94;84.27
72157;BME280;60035;52.122;5.406;2022-08-19T03:23:14;101568.56;;;15.92;84.52
72157;BME280;60035;52.122;5.406;2022-08-19T03:25:44;101567.78;;;15.90;84.31
72157;BME280;60035;52.122;5.406;2022-08-19T03:28:12;101562.53;;;15.91;83.99
72157;BME280;60035;52.122;5.406;2022-08-19T03:30:40;101565.97;;;15.92;83.98
72157;BME280;60035;52.122;5.406;2022-08-19T03:33:10;101565.31;;;15.87;84.08
72157;BME280;60035;52.122;5.406;2022-08-19T03:36:09;101567.38;;;15.77;84.27
72157;BME280;60035;52.122;5.406;2022-08-19T03:38:38;101563.44;;;15.68;84.36
72157;BME280;60035;52.122;5.406;2022-08-19T03:41:08;101573.47;;;15.54;84.81
72157;BME280;60035;52.122;5.406;2022-08-19T03:43:39;101565.72;;;15.54;85.01
72157;BME280;60035;52.122;5.406;2022-08-19T03:46:12;101576.66;;;15.60;85.12
72157;BME280;60035;52.122;5.406;2022-08-19T03:48:39;101577.75;;;15.55;85.10
72157;BME280;60035;52.122;5.406;2022-08-19T03:51:07;101574.38;;;15.53;85.07
72157;BME280;60035;52.122;5.406;2022-08-19T03:53:34;101571.84;;;15.51;85.39
72157;BME280;60035;52.122;5.406;2022-08-19T03:56:01;101566.81;;;15.48;84.96
72157;BME280;60035;52.122;5.406;2022-08-19T03:58:29;101570.22;;;15.48;85.08
72157;BME280;60035;52.122;5.406;2022-08-19T04:00:56;101566.25;;;15.40;85.02
72157;BME280;60035;52.122;5.406;2022-08-19T04:03:25;101570.38;;;15.44;85.18
72157;BME280;60035;52.122;5.406;2022-08-19T04:05:53;101572.88;;;15.47;84.77
72157;BME280;60035;52.122;5.406;2022-08-19T04:08:20;101572.81;;;15.48;84.68
72157;BME280;60035;52.122;5.406;2022-08-19T04:10:48;101558.47;;;15.41;84.71
72157;BME280;60035;52.122;5.406;2022-08-19T04:13:17;101563.97;;;15.32;85.05
72157;BME280;60035;52.122;5.406;2022-08-19T04:15:45;101557.13;;;15.31;85.23
72157;BME280;60035;52.122;5.406;2022-08-19T04:18:13;101556.09;;;15.35;84.95
72157;BME280;60035;52.122;5.406;2022-08-19T04:20:46;101556.59;;;15.23;85.26
72157;BME280;60035;52.122;5.406;2022-08-19T04:23:13;101566.09;;;15.21;85.31
72157;BME280;60035;52.122;5.406;2022-08-19T04:25:42;101563.41;;;15.24;85.73
72157;BME280;60035;52.122;5.406;2022-08-19T04:28:11;101555.50;;;15.28;85.67
72157;BME280;60035;52.122;5.406;2022-08-19T04:30:44;101560.53;;;15.31;85.61
72157;BME280;60035;52.122;5.406;2022-08-19T04:33:13;101559.66;;;15.32;85.60
72157;BME280;60035;52.122;5.406;2022-08-19T04:35:46;101557.34;;;15.25;86.20
72157;BME280;60035;52.122;5.406;2022-08-19T04:38:16;101562.91;;;15.14;86.35
72157;BME280;60035;52.122;5.406;2022-08-19T04:40:48;101560.41;;;15.12;86.59
72157;BME280;60035;52.122;5.406;2022-08-19T04:43:34;101562.03;;;15.15;86.76
72157;BME280;60035;52.122;5.406;2022-08-19T04:46:06;101557.53;;;15.20;86.72
72157;BME280;60035;52.122;5.406;2022-08-19T04:48:35;101551.59;;;15.18;86.72
72157;BME280;60035;52.122;5.406;2022-08-19T04:51:10;101553.34;;;15.18;86.93
72157;BME280;60035;52.122;5.406;2022-08-19T04:53:40;101546.97;;;15.26;86.82
72157;BME280;60035;52.122;5.406;2022-08-19T04:56:14;101551.84;;;15.34;86.79
72157;BME280;60035;52.122;5.406;2022-08-19T04:58:44;101552.56;;;15.38;86.94
72157;BME280;60035;52.122;5.406;2022-08-19T05:01:17;101558.41;;;15.43;86.95
72157;BME280;60035;52.122;5.406;2022-08-19T05:03:44;101558.41;;;15.43;87.23
72157;BME280;60035;52.122;5.406;2022-08-19T05:06:13;101565.28;;;15.42;87.47
72157;BME280;60035;52.122;5.406;2022-08-19T05:08:42;101570.28;;;15.47;87.65
72157;BME280;60035;52.122;5.406;2022-08-19T05:11:13;101571.31;;;15.43;87.53
72157;BME280;60035;52.122;5.406;2022-08-19T05:13:40;101572.41;;;15.36;87.26
72157;BME280;60035;52.122;5.406;2022-08-19T05:16:07;101576.09;;;15.30;87.11
72157;BME280;60035;52.122;5.406;2022-08-19T05:18:33;101576.69;;;15.37;86.81
72157;BME280;60035;52.122;5.406;2022-08-19T05:21:19;101579.88;;;15.43;86.65
72157;BME280;60035;52.122;5.406;2022-08-19T05:24:06;101576.03;;;15.54;86.38
72157;BME280;60035;52.122;5.406;2022-08-19T05:26:37;101567.88;;;15.64;85.88
72157;BME280;60035;52.122;5.406;2022-08-19T05:29:04;101570.31;;;15.69;86.28
72157;BME280;60035;52.122;5.406;2022-08-19T05:31:31;101571.06;;;15.71;86.02
72157;BME280;60035;52.122;5.406;2022-08-19T05:33:58;101567.38;;;15.77;86.19
72157;BME280;60035;52.122;5.406;2022-08-19T05:36:27;101575.81;;;15.82;86.28
72157;BME280;60035;52.122;5.406;2022-08-19T05:38:54;101579.97;;;15.86;86.37
72157;BME280;60035;52.122;5.406;2022-08-19T05:41:22;101576.31;;;15.92;86.42
72157;BME280;60035;52.122;5.406;2022-08-19T05:43:52;101576.97;;;15.97;86.36
72157;BME280;60035;52.122;5.406;2022-08-19T05:46:19;101584.47;;;16.03;86.42
72157;BME280;60035;52.122;5.406;2022-08-19T05:48:53;101579.88;;;16.10;86.32
72157;BME280;60035;52.122;5.406;2022-08-19T05:51:24;101581.19;;;16.20;86.29
72157;BME280;60035;52.122;5.406;2022-08-19T05:53:54;101574.75;;;16.30;86.05
72157;BME280;60035;52.122;5.406;2022-08-19T05:56:21;101569.25;;;16.38;86.02
72157;BME280;60035;52.122;5.406;2022-08-19T05:58:47;101565.38;;;16.48;85.72
72157;BME280;60035;52.122;5.406;2022-08-19T06:01:17;101568.41;;;16.58;86.03
72157;BME280;60035;52.122;5.406;2022-08-19T06:03:44;101574.78;;;16.70;86.18
72157;BME280;60035;52.122;5.406;2022-08-19T06:06:12;101578.91;;;16.74;86.16
72157;BME280;60035;52.122;5.406;2022-08-19T06:08:39;101582.00;;;16.82;86.48
72157;BME280;60035;52.122;5.406;2022-08-19T06:13:47;101581.19;;;17.01;86.54
72157;BME280;60035;52.122;5.406;2022-08-19T06:16:17;101579.88;;;17.11;86.91
72157;BME280;60035;52.122;5.406;2022-08-19T06:18:49;101578.50;;;17.23;86.69
72157;BME280;60035;52.122;5.406;2022-08-19T06:21:21;101577.91;;;17.36;86.74
72157;BME280;60035;52.122;5.406;2022-08-19T06:23:49;101578.34;;;17.45;86.98
72157;BME280;60035;52.122;5.406;2022-08-19T06:26:18;101577.06;;;17.54;87.16
72157;BME280;60035;52.122;5.406;2022-08-19T06:28:46;101577.31;;;17.67;87.43
72157;BME280;60035;52.122;5.406;2022-08-19T06:31:19;101580.25;;;17.78;87.71
72157;BME280;60035;52.122;5.406;2022-08-19T06:33:47;101579.50;;;17.94;87.69
72157;BME280;60035;52.122;5.406;2022-08-19T06:38:50;101578.19;;;18.22;87.84
72157;BME280;60035;52.122;5.406;2022-08-19T06:41:16;101579.97;;;18.37;87.83
72157;BME280;60035;52.122;5.406;2022-08-19T06:43:43;101576.44;;;18.56;87.67
72157;BME280;60035;52.122;5.406;2022-08-19T06:46:14;101574.75;;;18.72;87.50
72157;BME280;60035;52.122;5.406;2022-08-19T06:48:41;101585.25;;;18.87;87.19
72157;BME280;60035;52.122;5.406;2022-08-19T06:51:12;101581.25;;;18.97;86.72
72157;BME280;60035;52.122;5.406;2022-08-19T06:53:48;101588.41;;;19.09;86.40
72157;BME280;60035;52.122;5.406;2022-08-19T06:56:27;101579.63;;;19.12;86.10
72157;BME280;60035;52.122;5.406;2022-08-19T06:59:11;101587.16;;;19.17;86.18
72157;BME280;60035;52.122;5.406;2022-08-19T07:01:46;101587.56;;;19.25;85.88
72157;BME280;60035;52.122;5.406;2022-08-19T07:04:15;101585.50;;;19.31;85.64
72157;BME280;60035;52.122;5.406;2022-08-19T07:06:45;101584.63;;;19.31;85.75
72157;BME280;60035;52.122;5.406;2022-08-19T07:09:20;101590.00;;;19.28;85.27
72157;BME280;60035;52.122;5.406;2022-08-19T07:11:49;101592.69;;;19.26;85.23
72157;BME280;60035;52.122;5.406;2022-08-19T07:14:18;101591.50;;;19.32;85.16
72157;BME280;60035;52.122;5.406;2022-08-19T07:16:48;101591.19;;;19.38;84.77
72157;BME280;60035;52.122;5.406;2022-08-19T07:19:16;101596.03;;;19.44;84.82
72157;BME280;60035;52.122;5.406;2022-08-19T07:21:45;101599.56;;;19.59;84.67
72157;BME280;60035;52.122;5.406;2022-08-19T07:24:12;101591.09;;;19.56;84.29
72157;BME280;60035;52.122;5.406;2022-08-19T07:26:41;101594.19;;;19.62;83.92
72157;BME280;60035;52.122;5.406;2022-08-19T07:29:09;101594.00;;;19.50;84.11
72157;BME280;60035;52.122;5.406;2022-08-19T07:31:37;101597.78;;;19.60;84.61
72157;BME280;60035;52.122;5.406;2022-08-19T07:34:05;101592.38;;;19.79;84.18
72157;BME280;60035;52.122;5.406;2022-08-19T07:36:39;101597.28;;;19.85;83.63
72157;BME280;60035;52.122;5.406;2022-08-19T07:39:13;101594.63;;;20.01;83.41
72157;BME280;60035;52.122;5.406;2022-08-19T07:41:40;101593.81;;;20.01;82.47
72157;BME280;60035;52.122;5.406;2022-08-19T07:44:08;101597.81;;;20.06;82.50
72157;BME280;60035;52.122;5.406;2022-08-19T07:46:37;101598.56;;;20.08;82.15
72157;BME280;60035;52.122;5.406;2022-08-19T07:49:06;101597.28;;;20.16;82.17
72157;BME280;60035;52.122;5.406;2022-08-19T07:51:33;101602.03;;;20.23;81.76
72157;BME280;60035;52.122;5.406;2022-08-19T07:54:03;101604.31;;;20.13;81.49
72157;BME280;60035;52.122;5.406;2022-08-19T07:56:29;101605.84;;;20.18;81.40
72157;BME280;60035;52.122;5.406;2022-08-19T07:58:56;101604.91;;;20.33;80.75
72157;BME280;60035;52.122;5.406;2022-08-19T08:01:26;101615.25;;;20.49;79.87
72157;BME280;60035;52.122;5.406;2022-08-19T08:03:55;101607.75;;;20.59;79.22
72157;BME280;60035;52.122;5.406;2022-08-19T08:06:53;101611.84;;;20.63;78.43
72157;BME280;60035;52.122;5.406;2022-08-19T08:09:41;101617.47;;;20.86;77.74
72157;BME280;60035;52.122;5.406;2022-08-19T08:12:31;101619.50;;;21.09;77.15
72157;BME280;60035;52.122;5.406;2022-08-19T08:15:04;101620.88;;;21.15;77.08
72157;BME280;60035;52.122;5.406;2022-08-19T08:17:41;101630.72;;;21.24;75.91
72157;BME280;60035;52.122;5.406;2022-08-19T08:20:18;101637.63;;;21.25;76.40
72157;BME280;60035;52.122;5.406;2022-08-19T08:22:46;101640.41;;;21.37;75.33
72157;BME280;60035;52.122;5.406;2022-08-19T08:25:48;101632.66;;;21.35;74.55
72157;BME280;60035;52.122;5.406;2022-08-19T08:28:15;101636.59;;;21.28;75.08
72157;BME280;60035;52.122;5.406;2022-08-19T08:30:43;101646.41;;;21.52;74.64
72157;BME280;60035;52.122;5.406;2022-08-19T08:33:10;101643.16;;;21.62;73.90
72157;BME280;60035;52.122;5.406;2022-08-19T08:35:39;101652.66;;;21.63;74.57
72157;BME280;60035;52.122;5.406;2022-08-19T08:38:08;101651.09;;;22.01;73.26
72157;BME280;60035;52.122;5.406;2022-08-19T08:40:53;101656.47;;;22.12;72.33
72157;BME280;60035;52.122;5.406;2022-08-19T08:43:32;101657.00;;;22.18;72.71
72157;BME280;60035;52.122;5.406;2022-08-19T08:46:06;101655.75;;;22.23;72.27
72157;BME280;60035;52.122;5.406;2022-08-19T08:49:03;101646.50;;;22.32;71.83
72157;BME280;60035;52.122;5.406;2022-08-19T08:51:37;101649.75;;;22.36;71.05
72157;BME280;60035;52.122;5.406;2022-08-19T08:54:12;101649.13;;;22.45;70.39
72157;BME280;60035;52.122;5.406;2022-08-19T08:56:41;101647.91;;;22.51;69.33
72157;BME280;60035;52.122;5.406;2022-08-19T08:59:37;101645.59;;;22.59;69.70
72157;BME280;60035;52.122;5.406;2022-08-19T09:02:05;101648.22;;;22.72;69.34
72157;BME280;60035;52.122;5.406;2022-08-19T09:04:31;101645.09;;;22.79;68.65
72157;BME280;60035;52.122;5.406;2022-08-19T09:07:10;101638.78;;;22.82;68.00
72157;BME280;60035;52.122;5.406;2022-08-19T09:10:13;101648.94;;;22.87;69.03
72157;BME280;60035;52.122;5.406;2022-08-19T09:15:22;101649.16;;;23.34;68.53
72157;BME280;60035;52.122;5.406;2022-08-19T09:18:00;101649.53;;;23.53;66.56
72157;BME280;60035;52.122;5.406;2022-08-19T09:20:28;101649.47;;;23.42;67.04
72157;BME280;60035;52.122;5.406;2022-08-19T09:22:54;101652.56;;;23.23;66.78
72157;BME280;60035;52.122;5.406;2022-08-19T09:25:24;101649.72;;;23.13;67.74
72157;BME280;60035;52.122;5.406;2022-08-19T09:27:53;101649.13;;;23.22;67.33
72157;BME280;60035;52.122;5.406;2022-08-19T09:30:30;101647.19;;;23.37;67.55
72157;BME280;60035;52.122;5.406;2022-08-19T09:32:57;101650.84;;;23.35;66.74
72157;BME280;60035;52.122;5.406;2022-08-19T09:35:26;101652.78;;;23.20;67.01
72157;BME280;60035;52.122;5.406;2022-08-19T09:37:54;101655.16;;;23.23;67.00
72157;BME280;60035;52.122;5.406;2022-08-19T09:40:25;101650.84;;;23.35;66.83
72157;BME280;60035;52.122;5.406;2022-08-19T09:42:55;101650.06;;;23.45;65.42
72157;BME280;60035;52.122;5.406;2022-08-19T09:45:23;101650.66;;;23.62;64.94
72157;BME280;60035;52.122;5.406;2022-08-19T09:47:52;101648.16;;;23.85;64.94
72157;BME280;60035;52.122;5.406;2022-08-19T09:50:21;101649.75;;;24.23;63.91
72157;BME280;60035;52.122;5.406;2022-08-19T09:52:48;101645.81;;;24.28;63.11
72157;BME280;60035;52.122;5.406;2022-08-19T09:55:23;101651.91;;;24.29;62.34
72157;BME280;60035;52.122;5.406;2022-08-19T09:57:57;101645.75;;;24.41;62.61
72157;BME280;60035;52.122;5.406;2022-08-19T10:00:26;101642.00;;;24.80;61.95
72157;BME280;60035;52.122;5.406;2022-08-19T10:02:53;101641.41;;;24.87;61.42
72157;BME280;60035;52.122;5.406;2022-08-19T10:05:19;101644.50;;;25.04;61.48
72157;BME280;60035;52.122;5.406;2022-08-19T10:08:08;101634.56;;;25.41;58.63
72157;BME280;60035;52.122;5.406;2022-08-19T10:10:40;101638.84;;;25.31;58.38
72157;BME280;60035;52.122;5.406;2022-08-19T10:13:13;101645.91;;;25.19;58.84
72157;BME280;60035;52.122;5.406;2022-08-19T10:15:40;101643.66;;;25.03;58.93
72157;BME280;60035;52.122;5.406;2022-08-19T10:18:13;101645.94;;;24.97;60.40
72157;BME280;60035;52.122;5.406;2022-08-19T10:20:39;101645.44;;;25.14;60.18
72157;BME280;60035;52.122;5.406;2022-08-19T10:23:08;101643.59;;;25.49;59.65
72157;BME280;60035;52.122;5.406;2022-08-19T10:25:35;101644.75;;;25.67;58.09
72157;BME280;60035;52.122;5.406;2022-08-19T10:28:04;101636.88;;;25.67;57.43
72157;BME280;60035;52.122;5.406;2022-08-19T10:30:36;101638.63;;;25.78;57.83
72157;BME280;60035;52.122;5.406;2022-08-19T10:33:03;101637.06;;;25.75;57.40
72157;BME280;60035;52.122;5.406;2022-08-19T10:35:36;101638.03;;;25.74;56.62
72157;BME280;60035;52.122;5.406;2022-08-19T10:38:21;101638.31;;;25.92;57.32
72157;BME280;60035;52.122;5.406;2022-08-19T10:41:06;101634.91;;;26.13;57.28
72157;BME280;60035;52.122;5.406;2022-08-19T10:43:33;101630.94;;;26.19;56.69
72157;BME280;60035;52.122;5.406;2022-08-19T10:46:04;101634.06;;;26.13;57.11
72157;BME280;60035;52.122;5.406;2022-08-19T10:48:40;101632.91;;;26.05;56.46
72157;BME280;60035;52.122;5.406;2022-08-19T10:51:07;101636.22;;;26.07;56.49
72157;BME280;60035;52.122;5.406;2022-08-19T10:53:53;101635.66;;;26.46;56.66
72157;BME280;60035;52.122;5.406;2022-08-19T10:56:22;101630.75;;;26.63;55.57
72157;BME280;60035;52.122;5.406;2022-08-19T10:59:07;101624.53;;;26.64;55.68
72157;BME280;60035;52.122;5.406;2022-08-19T11:01:34;101620.88;;;26.76;55.40
72157;BME280;60035;52.122;5.406;2022-08-19T11:04:02;101615.91;;;26.83;55.79
72157;BME280;60035;52.122;5.406;2022-08-19T11:06:32;101604.53;;;26.72;55.48
72157;BME280;60035;52.122;5.406;2022-08-19T11:08:58;101615.03;;;26.72;56.79
72157;BME280;60035;52.122;5.406;2022-08-19T11:11:26;101621.31;;;26.81;55.47
72157;BME280;60035;52.122;5.406;2022-08-19T11:13:53;101621.09;;;26.94;54.77
72157;BME280;60035;52.122;5.406;2022-08-19T11:16:22;101623.91;;;26.71;54.80
72157;BME280;60035;52.122;5.406;2022-08-19T11:18:54;101616.53;;;26.34;56.40
72157;BME280;60035;52.122;5.406;2022-08-19T11:21:27;101611.97;;;26.36;56.69
72157;BME280;60035;52.122;5.406;2022-08-19T11:23:56;101612.16;;;26.23;57.60
72157;BME280;60035;52.122;5.406;2022-08-19T11:26:25;101611.09;;;26.57;57.81
72157;BME280;60035;52.122;5.406;2022-08-19T11:28:51;101612.50;;;26.92;56.29
72157;BME280;60035;52.122;5.406;2022-08-19T11:31:23;101601.03;;;27.03;56.82
72157;BME280;60035;52.122;5.406;2022-08-19T11:33:59;101606.38;;;27.42;55.50
72157;BME280;60035;52.122;5.406;2022-08-19T11:36:30;101603.06;;;27.50;54.14
72157;BME280;60035;52.122;5.406;2022-08-19T11:38:59;101598.94;;;27.37;53.97
72157;BME280;60035;52.122;5.406;2022-08-19T11:41:26;101592.25;;;27.53;53.76
72157;BME280;60035;52.122;5.406;2022-08-19T11:43:53;101593.50;;;27.88;54.58
72157;BME280;60035;52.122;5.406;2022-08-19T11:46:24;101591.53;;;27.90;54.20
72157;BME280;60035;52.122;5.406;2022-08-19T11:48:51;101586.44;;;27.69;54.43
72157;BME280;60035;52.122;5.406;2022-08-19T11:51:20;101588.66;;;27.93;54.34
72157;BME280;60035;52.122;5.406;2022-08-19T11:53:48;101595.94;;;28.19;52.39
72157;BME280;60035;52.122;5.406;2022-08-19T11:56:17;101595.19;;;28.36;52.96
72157;BME280;60035;52.122;5.406;2022-08-19T11:58:45;101596.00;;;28.47;52.47
72157;BME280;60035;52.122;5.406;2022-08-19T12:01:15;101596.00;;;28.47;52.02
72157;BME280;60035;52.122;5.406;2022-08-19T12:03:43;101595.19;;;28.36;51.39
72157;BME280;60035;52.122;5.406;2022-08-19T12:06:18;101587.31;;;28.64;52.06
72157;BME280;60035;52.122;5.406;2022-08-19T12:08:45;101594.47;;;28.44;51.89
72157;BME280;60035;52.122;5.406;2022-08-19T12:11:13;101596.50;;;28.13;52.34
72157;BME280;60035;52.122;5.406;2022-08-19T12:13:41;101600.00;;;28.03;53.03
72157;BME280;60035;52.122;5.406;2022-08-19T12:16:12;101600.28;;;27.61;54.03
72157;BME280;60035;52.122;5.406;2022-08-19T12:18:39;101606.06;;;27.25;55.06
72157;BME280;60035;52.122;5.406;2022-08-19T12:21:09;101612.50;;;26.92;56.33
72157;BME280;60035;52.122;5.406;2022-08-19T12:23:37;101620.66;;;26.58;56.85
72157;BME280;60035;52.122;5.406;2022-08-19T12:26:04;101613.25;;;26.21;57.48
72157;BME280;60035;52.122;5.406;2022-08-19T12:28:31;101617.81;;;25.86;58.84
72157;BME280;60035;52.122;5.406;2022-08-19T12:30:57;101612.09;;;25.60;59.58
72157;BME280;60035;52.122;5.406;2022-08-19T12:33:27;101608.69;;;25.48;60.64
72157;BME280;60035;52.122;5.406;2022-08-19T12:35:54;101621.81;;;25.48;60.04
72157;BME280;60035;52.122;5.406;2022-08-19T12:38:21;101621.59;;;25.28;61.45
72157;BME280;60035;52.122;5.406;2022-08-19T12:40:50;101612.69;;;25.08;64.28
72157;BME280;60035;52.122;5.406;2022-08-19T12:43:22;101612.88;;;25.28;63.55
72157;BME280;60035;52.122;5.406;2022-08-19T12:45:49;101611.31;;;25.48;62.80
72157;BME280;60035;52.122;5.406;2022-08-19T12:48:15;101609.09;;;25.65;62.50
72157;BME280;60035;52.122;5.406;2022-08-19T12:50:59;101608.94;;;25.77;62.13
72157;BME280;60035;52.122;5.406;2022-08-19T12:53:26;101609.66;;;26.22;60.64
72157;BME280;60035;52.122;5.406;2022-08-19T12:55:57;101597.56;;;26.31;60.03
72157;BME280;60035;52.122;5.406;2022-08-19T12:58:23;101599.59;;;26.27;60.12
72157;BME280;60035;52.122;5.406;2022-08-19T13:00:53;101588.47;;;26.14;60.10
72157;BME280;60035;52.122;5.406;2022-08-19T13:03:19;101592.94;;;26.02;60.40
72157;BME280;60035;52.122;5.406;2022-08-19T13:05:50;101594.78;;;25.90;61.15
72157;BME280;60035;52.122;5.406;2022-08-19T13:08:17;101597.22;;;25.82;61.65
72157;BME280;60035;52.122;5.406;2022-08-19T13:10:43;101595.50;;;25.71;62.14
72157;BME280;60035;52.122;5.406;2022-08-19T13:13:10;101597.25;;;25.70;61.40
72157;BME280;60035;52.122;5.406;2022-08-19T13:15:39;101599.88;;;25.70;61.77